sensor_id;sensor_type;location;lat;lon;timestamp;P1;durP1;ratioP1;P2;durP2;ratioP2
54679;SDS011;40578;53.178;5.846;2024-02-26T00:00:29;17.83;;;9.83;;
54679;SDS011;40578;53.178;5.846;2024-02-26T00:02:55;17.93;;;10.57;;
54679;SDS011;40578;53.178;5.846;2024-02-26T00:05:21;17.70;;;10.80;;
54679;SDS011;40578;53.178;5.846;2024-02-26T00:07:47;16.80;;;10.07;;
54679;SDS011;40578;53.178;5.846;2024-02-26T00:10:13;17.35;;;10.20;;
54679;SDS011;40578;53.178;5.846;2024-02-26T00:12:39;19.25;;;9.90;;
54679;SDS011;40578;53.178;5.846;2024-02-26T00:15:06;15.50;;;9.37;;
54679;SDS011;40578;53.178;5.846;2024-02-26T00:19:58;17.33;;;10.07;;
54679;SDS011;40578;53.178;5.846;2024-02-26T00:22:23;20.33;;;11.60;;
54679;SDS011;40578;53.178;5.846;2024-02-26T00:24:49;17.07;;;10.00;;
54679;SDS011;40578;53.178;5.846;2024-02-26T00:27:14;17.90;;;10.60;;
54679;SDS011;40578;53.178;5.846;2024-02-26T00:29:40;17.73;;;10.10;;
54679;SDS011;40578;53.178;5.846;2024-02-26T00:32:06;16.60;;;9.53;;
54679;SDS011;40578;53.178;5.846;2024-02-26T00:34:31;18.33;;;10.30;;
54679;SDS011;40578;53.178;5.846;2024-02-26T00:36:57;16.30;;;9.63;;
54679;SDS011;40578;53.178;5.846;2024-02-26T00:39:23;17.90;;;10.40;;
54679;SDS011;40578;53.178;5.846;2024-02-26T00:41:48;18.13;;;10.27;;
54679;SDS011;40578;53.178;5.846;2024-02-26T00:44:16;15.70;;;9.50;;
54679;SDS011;40578;53.178;5.846;2024-02-26T00:46:42;20.30;;;9.43;;
54679;SDS011;40578;53.178;5.846;2024-02-26T00:49:08;14.93;;;9.40;;
54679;SDS011;40578;53.178;5.846;2024-02-26T00:51:33;16.37;;;8.90;;
54679;SDS011;40578;53.178;5.846;2024-02-26T00:53:59;15.07;;;8.97;;
54679;SDS011;40578;53.178;5.846;2024-02-26T00:56:24;14.67;;;8.57;;
54679;SDS011;40578;53.178;5.846;2024-02-26T00:58:50;17.10;;;9.13;;
54679;SDS011;40578;53.178;5.846;2024-02-26T01:01:16;15.77;;;9.13;;
54679;SDS011;40578;53.178;5.846;2024-02-26T01:03:42;15.25;;;8.77;;
54679;SDS011;40578;53.178;5.846;2024-02-26T01:06:08;15.23;;;8.60;;
54679;SDS011;40578;53.178;5.846;2024-02-26T01:08:34;13.88;;;8.30;;
54679;SDS011;40578;53.178;5.846;2024-02-26T01:11:00;13.35;;;7.85;;
54679;SDS011;40578;53.178;5.846;2024-02-26T01:13:26;13.47;;;8.07;;
54679;SDS011;40578;53.178;5.846;2024-02-26T01:15:52;11.40;;;7.13;;
54679;SDS011;40578;53.178;5.846;2024-02-26T01:18:17;15.63;;;7.83;;
54679;SDS011;40578;53.178;5.846;2024-02-26T01:20:43;11.30;;;7.23;;
54679;SDS011;40578;53.178;5.846;2024-02-26T01:23:09;11.77;;;7.17;;
54679;SDS011;40578;53.178;5.846;2024-02-26T01:25:34;11.43;;;7.27;;
54679;SDS011;40578;53.178;5.846;2024-02-26T01:28:00;16.47;;;8.03;;
54679;SDS011;40578;53.178;5.846;2024-02-26T01:30:26;10.97;;;6.87;;
54679;SDS011;40578;53.178;5.846;2024-02-26T01:32:51;11.97;;;7.27;;
54679;SDS011;40578;53.178;5.846;2024-02-26T01:35:17;11.73;;;6.90;;
54679;SDS011;40578;53.178;5.846;2024-02-26T01:37:42;11.70;;;7.60;;
54679;SDS011;40578;53.178;5.846;2024-02-26T01:40:08;10.97;;;6.27;;
54679;SDS011;40578;53.178;5.846;2024-02-26T01:42:38;12.95;;;7.38;;
54679;SDS011;40578;53.178;5.846;2024-02-26T01:45:03;12.45;;;7.18;;
54679;SDS011;40578;53.178;5.846;2024-02-26T01:47:32;11.52;;;7.22;;
54679;SDS011;40578;53.178;5.846;2024-02-26T01:49:57;13.40;;;7.53;;
54679;SDS011;40578;53.178;5.846;2024-02-26T01:52:23;12.03;;;7.40;;
54679;SDS011;40578;53.178;5.846;2024-02-26T01:54:49;11.87;;;7.23;;
54679;SDS011;40578;53.178;5.846;2024-02-26T01:57:15;12.63;;;7.28;;
54679;SDS011;40578;53.178;5.846;2024-02-26T01:59:41;10.98;;;6.63;;
54679;SDS011;40578;53.178;5.846;2024-02-26T02:02:08;12.85;;;7.28;;
54679;SDS011;40578;53.178;5.846;2024-02-26T02:04:36;14.68;;;7.05;;
54679;SDS011;40578;53.178;5.846;2024-02-26T02:07:02;11.50;;;6.80;;
54679;SDS011;40578;53.178;5.846;2024-02-26T02:09:28;11.18;;;6.82;;
54679;SDS011;40578;53.178;5.846;2024-02-26T02:11:54;10.47;;;6.30;;
54679;SDS011;40578;53.178;5.846;2024-02-26T02:14:20;13.05;;;7.70;;
54679;SDS011;40578;53.178;5.846;2024-02-26T02:16:47;10.70;;;7.10;;
54679;SDS011;40578;53.178;5.846;2024-02-26T02:19:13;10.80;;;6.85;;
54679;SDS011;40578;53.178;5.846;2024-02-26T02:21:38;10.45;;;6.75;;
54679;SDS011;40578;53.178;5.846;2024-02-26T02:24:04;11.90;;;7.03;;
54679;SDS011;40578;53.178;5.846;2024-02-26T02:26:30;12.03;;;6.80;;
54679;SDS011;40578;53.178;5.846;2024-02-26T02:28:56;9.32;;;6.15;;
54679;SDS011;40578;53.178;5.846;2024-02-26T02:31:22;16.10;;;7.10;;
54679;SDS011;40578;53.178;5.846;2024-02-26T02:33:48;10.90;;;6.33;;
54679;SDS011;40578;53.178;5.846;2024-02-26T02:36:13;10.15;;;5.70;;
54679;SDS011;40578;53.178;5.846;2024-02-26T02:38:48;12.93;;;5.87;;
54679;SDS011;40578;53.178;5.846;2024-02-26T02:41:17;10.85;;;6.10;;
54679;SDS011;40578;53.178;5.846;2024-02-26T02:43:43;13.25;;;6.40;;
54679;SDS011;40578;53.178;5.846;2024-02-26T02:46:09;12.60;;;6.60;;
54679;SDS011;40578;53.178;5.846;2024-02-26T02:48:37;10.73;;;6.80;;
54679;SDS011;40578;53.178;5.846;2024-02-26T02:51:03;15.15;;;7.25;;
54679;SDS011;40578;53.178;5.846;2024-02-26T02:53:29;11.15;;;7.10;;
54679;SDS011;40578;53.178;5.846;2024-02-26T02:55:54;11.87;;;6.67;;
54679;SDS011;40578;53.178;5.846;2024-02-26T02:58:20;11.73;;;6.17;;
54679;SDS011;40578;53.178;5.846;2024-02-26T03:00:46;13.37;;;6.30;;
54679;SDS011;40578;53.178;5.846;2024-02-26T03:03:11;10.47;;;6.17;;
54679;SDS011;40578;53.178;5.846;2024-02-26T03:05:37;11.60;;;6.60;;
54679;SDS011;40578;53.178;5.846;2024-02-26T03:08:03;8.50;;;5.27;;
54679;SDS011;40578;53.178;5.846;2024-02-26T03:10:29;8.55;;;5.13;;
54679;SDS011;40578;53.178;5.846;2024-02-26T03:12:55;8.83;;;5.37;;
54679;SDS011;40578;53.178;5.846;2024-02-26T03:15:21;9.75;;;5.18;;
54679;SDS011;40578;53.178;5.846;2024-02-26T03:17:47;9.25;;;5.60;;
54679;SDS011;40578;53.178;5.846;2024-02-26T03:20:12;8.27;;;5.33;;
54679;SDS011;40578;53.178;5.846;2024-02-26T03:22:38;11.17;;;6.07;;
54679;SDS011;40578;53.178;5.846;2024-02-26T03:25:05;10.65;;;5.90;;
54679;SDS011;40578;53.178;5.846;2024-02-26T03:27:31;8.73;;;5.57;;
54679;SDS011;40578;53.178;5.846;2024-02-26T03:29:57;11.50;;;5.90;;
54679;SDS011;40578;53.178;5.846;2024-02-26T03:32:23;10.10;;;5.90;;
54679;SDS011;40578;53.178;5.846;2024-02-26T03:34:48;11.87;;;7.00;;
54679;SDS011;40578;53.178;5.846;2024-02-26T03:37:14;8.17;;;5.20;;
54679;SDS011;40578;53.178;5.846;2024-02-26T03:39:40;12.87;;;6.20;;
54679;SDS011;40578;53.178;5.846;2024-02-26T03:42:06;11.07;;;6.73;;
54679;SDS011;40578;53.178;5.846;2024-02-26T03:44:31;12.67;;;6.33;;
54679;SDS011;40578;53.178;5.846;2024-02-26T03:46:57;11.67;;;5.83;;
54679;SDS011;40578;53.178;5.846;2024-02-26T03:49:23;11.80;;;6.17;;
54679;SDS011;40578;53.178;5.846;2024-02-26T03:51:48;10.90;;;6.00;;
54679;SDS011;40578;53.178;5.846;2024-02-26T03:54:14;10.17;;;5.83;;
54679;SDS011;40578;53.178;5.846;2024-02-26T03:56:40;10.53;;;6.03;;
54679;SDS011;40578;53.178;5.846;2024-02-26T03:59:05;11.63;;;6.07;;
54679;SDS011;40578;53.178;5.846;2024-02-26T04:01:31;11.37;;;5.67;;
54679;SDS011;40578;53.178;5.846;2024-02-26T04:03:57;10.10;;;5.97;;
54679;SDS011;40578;53.178;5.846;2024-02-26T04:06:22;13.27;;;5.90;;
54679;SDS011;40578;53.178;5.846;2024-02-26T04:08:48;11.63;;;5.73;;
54679;SDS011;40578;53.178;5.846;2024-02-26T04:11:14;13.67;;;6.53;;
54679;SDS011;40578;53.178;5.846;2024-02-26T04:13:43;14.38;;;6.57;;
54679;SDS011;40578;53.178;5.846;2024-02-26T04:16:14;10.98;;;6.18;;
54679;SDS011;40578;53.178;5.846;2024-02-26T04:18:41;12.52;;;6.45;;
54679;SDS011;40578;53.178;5.846;2024-02-26T04:21:07;10.33;;;6.03;;
54679;SDS011;40578;53.178;5.846;2024-02-26T04:23:33;11.03;;;6.53;;
54679;SDS011;40578;53.178;5.846;2024-02-26T04:25:58;9.80;;;5.60;;
54679;SDS011;40578;53.178;5.846;2024-02-26T04:28:24;7.90;;;5.27;;
54679;SDS011;40578;53.178;5.846;2024-02-26T04:30:56;9.80;;;5.90;;
54679;SDS011;40578;53.178;5.846;2024-02-26T04:33:21;10.27;;;5.43;;
54679;SDS011;40578;53.178;5.846;2024-02-26T04:35:47;12.27;;;5.77;;
54679;SDS011;40578;53.178;5.846;2024-02-26T04:38:13;8.20;;;5.07;;
54679;SDS011;40578;53.178;5.846;2024-02-26T04:40:38;9.10;;;5.57;;
54679;SDS011;40578;53.178;5.846;2024-02-26T04:43:04;10.30;;;5.80;;
54679;SDS011;40578;53.178;5.846;2024-02-26T04:45:30;9.90;;;5.50;;
54679;SDS011;40578;53.178;5.846;2024-02-26T04:47:55;10.40;;;5.60;;
54679;SDS011;40578;53.178;5.846;2024-02-26T04:50:21;12.13;;;6.43;;
54679;SDS011;40578;53.178;5.846;2024-02-26T04:52:47;11.60;;;6.57;;
54679;SDS011;40578;53.178;5.846;2024-02-26T04:55:12;10.23;;;6.37;;
54679;SDS011;40578;53.178;5.846;2024-02-26T04:57:38;9.23;;;6.00;;
54679;SDS011;40578;53.178;5.846;2024-02-26T05:00:04;11.43;;;7.00;;
54679;SDS011;40578;53.178;5.846;2024-02-26T05:02:30;12.57;;;6.88;;
54679;SDS011;40578;53.178;5.846;2024-02-26T05:04:58;9.93;;;5.97;;
54679;SDS011;40578;53.178;5.846;2024-02-26T05:07:24;11.47;;;5.90;;
54679;SDS011;40578;53.178;5.846;2024-02-26T05:09:50;9.93;;;5.97;;
54679;SDS011;40578;53.178;5.846;2024-02-26T05:12:15;11.40;;;5.73;;
54679;SDS011;40578;53.178;5.846;2024-02-26T05:14:41;9.10;;;5.80;;
54679;SDS011;40578;53.178;5.846;2024-02-26T05:17:09;8.40;;;5.28;;
54679;SDS011;40578;53.178;5.846;2024-02-26T05:19:34;6.63;;;4.32;;
54679;SDS011;40578;53.178;5.846;2024-02-26T05:22:00;7.80;;;4.53;;
54679;SDS011;40578;53.178;5.846;2024-02-26T05:24:25;11.17;;;4.77;;
54679;SDS011;40578;53.178;5.846;2024-02-26T05:26:51;10.37;;;4.40;;
54679;SDS011;40578;53.178;5.846;2024-02-26T05:29:17;10.00;;;4.97;;
54679;SDS011;40578;53.178;5.846;2024-02-26T05:31:42;6.53;;;4.37;;
54679;SDS011;40578;53.178;5.846;2024-02-26T05:34:08;8.27;;;5.47;;
54679;SDS011;40578;53.178;5.846;2024-02-26T05:36:34;7.30;;;4.80;;
54679;SDS011;40578;53.178;5.846;2024-02-26T05:39:00;9.40;;;4.67;;
54679;SDS011;40578;53.178;5.846;2024-02-26T05:41:27;7.95;;;4.72;;
54679;SDS011;40578;53.178;5.846;2024-02-26T05:43:53;6.93;;;4.20;;
54679;SDS011;40578;53.178;5.846;2024-02-26T05:46:19;7.00;;;4.00;;
54679;SDS011;40578;53.178;5.846;2024-02-26T05:48:51;9.52;;;4.93;;
54679;SDS011;40578;53.178;5.846;2024-02-26T05:51:17;5.68;;;3.85;;
54679;SDS011;40578;53.178;5.846;2024-02-26T05:53:43;8.13;;;4.32;;
54679;SDS011;40578;53.178;5.846;2024-02-26T05:56:09;7.70;;;3.83;;
54679;SDS011;40578;53.178;5.846;2024-02-26T05:58:34;6.50;;;4.00;;
54679;SDS011;40578;53.178;5.846;2024-02-26T06:01:00;7.73;;;4.30;;
54679;SDS011;40578;53.178;5.846;2024-02-26T06:03:26;6.80;;;4.13;;
54679;SDS011;40578;53.178;5.846;2024-02-26T06:05:52;6.35;;;4.10;;
54679;SDS011;40578;53.178;5.846;2024-02-26T06:08:17;6.87;;;3.90;;
54679;SDS011;40578;53.178;5.846;2024-02-26T06:10:43;5.68;;;4.00;;
54679;SDS011;40578;53.178;5.846;2024-02-26T06:13:09;7.67;;;3.97;;
54679;SDS011;40578;53.178;5.846;2024-02-26T06:15:34;6.53;;;3.80;;
54679;SDS011;40578;53.178;5.846;2024-02-26T06:18:00;5.50;;;3.70;;
54679;SDS011;40578;53.178;5.846;2024-02-26T06:20:27;5.83;;;3.63;;
54679;SDS011;40578;53.178;5.846;2024-02-26T06:22:52;5.65;;;3.53;;
54679;SDS011;40578;53.178;5.846;2024-02-26T06:25:18;4.63;;;3.10;;
54679;SDS011;40578;53.178;5.846;2024-02-26T06:27:44;6.47;;;3.30;;
54679;SDS011;40578;53.178;5.846;2024-02-26T06:30:10;7.40;;;3.37;;
54679;SDS011;40578;53.178;5.846;2024-02-26T06:32:37;5.40;;;3.30;;
54679;SDS011;40578;53.178;5.846;2024-02-26T06:35:03;8.43;;;3.80;;
54679;SDS011;40578;53.178;5.846;2024-02-26T06:37:34;5.82;;;3.58;;
54679;SDS011;40578;53.178;5.846;2024-02-26T06:40:00;5.10;;;2.38;;
54679;SDS011;40578;53.178;5.846;2024-02-26T06:42:29;5.10;;;2.13;;
54679;SDS011;40578;53.178;5.846;2024-02-26T06:44:55;5.00;;;2.10;;
54679;SDS011;40578;53.178;5.846;2024-02-26T06:47:21;4.32;;;2.47;;
54679;SDS011;40578;53.178;5.846;2024-02-26T06:49:47;6.97;;;2.50;;
54679;SDS011;40578;53.178;5.846;2024-02-26T06:52:12;3.77;;;2.33;;
54679;SDS011;40578;53.178;5.846;2024-02-26T06:54:38;3.57;;;2.03;;
54679;SDS011;40578;53.178;5.846;2024-02-26T06:57:04;4.20;;;2.30;;
54679;SDS011;40578;53.178;5.846;2024-02-26T06:59:29;4.27;;;2.13;;
54679;SDS011;40578;53.178;5.846;2024-02-26T07:01:55;6.00;;;2.70;;
54679;SDS011;40578;53.178;5.846;2024-02-26T07:04:21;5.00;;;2.30;;
54679;SDS011;40578;53.178;5.846;2024-02-26T07:06:47;4.03;;;2.23;;
54679;SDS011;40578;53.178;5.846;2024-02-26T07:11:39;5.40;;;2.60;;
54679;SDS011;40578;53.178;5.846;2024-02-26T07:14:07;4.22;;;2.53;;
54679;SDS011;40578;53.178;5.846;2024-02-26T07:18:59;8.02;;;3.13;;
54679;SDS011;40578;53.178;5.846;2024-02-26T07:21:25;5.07;;;2.50;;
54679;SDS011;40578;53.178;5.846;2024-02-26T07:23:50;6.10;;;2.90;;
54679;SDS011;40578;53.178;5.846;2024-02-26T07:26:16;4.78;;;2.72;;
54679;SDS011;40578;53.178;5.846;2024-02-26T07:28:43;8.43;;;3.13;;
54679;SDS011;40578;53.178;5.846;2024-02-26T07:31:09;7.53;;;3.13;;
54679;SDS011;40578;53.178;5.846;2024-02-26T07:33:34;6.83;;;3.03;;
54679;SDS011;40578;53.178;5.846;2024-02-26T07:36:00;6.57;;;2.40;;
54679;SDS011;40578;53.178;5.846;2024-02-26T07:38:26;7.03;;;2.80;;
54679;SDS011;40578;53.178;5.846;2024-02-26T07:40:51;6.37;;;2.50;;
54679;SDS011;40578;53.178;5.846;2024-02-26T07:43:17;4.33;;;2.43;;
54679;SDS011;40578;53.178;5.846;2024-02-26T07:45:42;6.17;;;2.83;;
54679;SDS011;40578;53.178;5.846;2024-02-26T07:48:08;6.63;;;2.90;;
54679;SDS011;40578;53.178;5.846;2024-02-26T07:50:34;4.57;;;2.80;;
54679;SDS011;40578;53.178;5.846;2024-02-26T07:52:59;6.10;;;3.40;;
54679;SDS011;40578;53.178;5.846;2024-02-26T07:55:25;10.47;;;6.77;;
54679;SDS011;40578;53.178;5.846;2024-02-26T07:57:50;16.03;;;10.17;;
54679;SDS011;40578;53.178;5.846;2024-02-26T08:00:16;4.87;;;3.03;;
54679;SDS011;40578;53.178;5.846;2024-02-26T08:02:42;6.23;;;3.23;;
54679;SDS011;40578;53.178;5.846;2024-02-26T08:05:09;7.18;;;2.92;;
54679;SDS011;40578;53.178;5.846;2024-02-26T08:07:34;6.57;;;3.27;;
54679;SDS011;40578;53.178;5.846;2024-02-26T08:10:00;8.20;;;3.83;;
54679;SDS011;40578;53.178;5.846;2024-02-26T08:12:25;9.27;;;3.67;;
54679;SDS011;40578;53.178;5.846;2024-02-26T08:14:51;6.27;;;3.03;;
54679;SDS011;40578;53.178;5.846;2024-02-26T08:17:17;5.53;;;2.83;;
54679;SDS011;40578;53.178;5.846;2024-02-26T08:19:43;8.40;;;3.35;;
54679;SDS011;40578;53.178;5.846;2024-02-26T08:22:08;8.10;;;3.70;;
54679;SDS011;40578;53.178;5.846;2024-02-26T08:24:40;7.93;;;3.78;;
54679;SDS011;40578;53.178;5.846;2024-02-26T08:27:09;9.23;;;3.33;;
54679;SDS011;40578;53.178;5.846;2024-02-26T08:29:35;7.53;;;3.27;;
54679;SDS011;40578;53.178;5.846;2024-02-26T08:32:01;7.50;;;3.43;;
54679;SDS011;40578;53.178;5.846;2024-02-26T08:34:26;8.50;;;3.20;;
54679;SDS011;40578;53.178;5.846;2024-02-26T08:36:52;6.63;;;3.03;;
54679;SDS011;40578;53.178;5.846;2024-02-26T08:39:18;7.70;;;2.73;;
54679;SDS011;40578;53.178;5.846;2024-02-26T08:41:44;6.67;;;2.90;;
54679;SDS011;40578;53.178;5.846;2024-02-26T08:44:10;5.43;;;2.70;;
54679;SDS011;40578;53.178;5.846;2024-02-26T08:46:36;7.35;;;2.70;;
54679;SDS011;40578;53.178;5.846;2024-02-26T08:49:01;6.07;;;2.47;;
54679;SDS011;40578;53.178;5.846;2024-02-26T08:51:27;5.25;;;2.40;;
54679;SDS011;40578;53.178;5.846;2024-02-26T08:53:54;4.13;;;2.00;;
54679;SDS011;40578;53.178;5.846;2024-02-26T08:56:19;4.80;;;2.47;;
54679;SDS011;40578;53.178;5.846;2024-02-26T08:58:46;6.03;;;2.45;;
54679;SDS011;40578;53.178;5.846;2024-02-26T09:01:14;5.88;;;2.42;;
54679;SDS011;40578;53.178;5.846;2024-02-26T09:03:40;6.28;;;2.72;;
54679;SDS011;40578;53.178;5.846;2024-02-26T09:06:05;7.57;;;2.83;;
54679;SDS011;40578;53.178;5.846;2024-02-26T09:08:32;9.30;;;4.18;;
54679;SDS011;40578;53.178;5.846;2024-02-26T09:10:58;7.80;;;3.20;;
54679;SDS011;40578;53.178;5.846;2024-02-26T09:13:24;6.73;;;3.37;;
54679;SDS011;40578;53.178;5.846;2024-02-26T09:15:50;7.83;;;3.70;;
54679;SDS011;40578;53.178;5.846;2024-02-26T09:18:15;6.33;;;3.70;;
54679;SDS011;40578;53.178;5.846;2024-02-26T09:20:41;5.50;;;2.73;;
54679;SDS011;40578;53.178;5.846;2024-02-26T09:23:07;6.63;;;2.30;;
54679;SDS011;40578;53.178;5.846;2024-02-26T09:25:32;6.13;;;2.93;;
54679;SDS011;40578;53.178;5.846;2024-02-26T09:28:01;6.38;;;2.60;;
54679;SDS011;40578;53.178;5.846;2024-02-26T09:30:27;5.83;;;2.50;;
54679;SDS011;40578;53.178;5.846;2024-02-26T09:32:52;4.93;;;2.80;;
54679;SDS011;40578;53.178;5.846;2024-02-26T09:35:18;5.23;;;2.50;;
54679;SDS011;40578;53.178;5.846;2024-02-26T09:37:44;5.80;;;2.30;;
54679;SDS011;40578;53.178;5.846;2024-02-26T09:40:10;4.53;;;2.33;;
54679;SDS011;40578;53.178;5.846;2024-02-26T09:42:36;8.73;;;2.95;;
54679;SDS011;40578;53.178;5.846;2024-02-26T09:45:05;6.55;;;2.70;;
54679;SDS011;40578;53.178;5.846;2024-02-26T09:47:35;7.07;;;2.97;;
54679;SDS011;40578;53.178;5.846;2024-02-26T09:50:02;4.78;;;2.67;;
54679;SDS011;40578;53.178;5.846;2024-02-26T09:52:30;4.63;;;2.53;;
54679;SDS011;40578;53.178;5.846;2024-02-26T09:54:58;4.32;;;2.30;;
54679;SDS011;40578;53.178;5.846;2024-02-26T09:57:24;5.20;;;2.05;;
54679;SDS011;40578;53.178;5.846;2024-02-26T09:59:51;3.53;;;1.98;;
54679;SDS011;40578;53.178;5.846;2024-02-26T10:02:20;5.75;;;2.70;;
54679;SDS011;40578;53.178;5.846;2024-02-26T10:07:13;6.00;;;2.00;;
54679;SDS011;40578;53.178;5.846;2024-02-26T10:09:39;7.50;;;2.30;;
54679;SDS011;40578;53.178;5.846;2024-02-26T10:14:32;7.80;;;3.00;;
54679;SDS011;40578;53.178;5.846;2024-02-26T10:16:58;6.40;;;2.00;;
54679;SDS011;40578;53.178;5.846;2024-02-26T10:19:29;5.95;;;2.47;;
54679;SDS011;40578;53.178;5.846;2024-02-26T10:21:56;4.20;;;2.00;;
54679;SDS011;40578;53.178;5.846;2024-02-26T10:24:23;5.55;;;2.15;;
54679;SDS011;40578;53.178;5.846;2024-02-26T10:26:50;4.55;;;2.00;;
54679;SDS011;40578;53.178;5.846;2024-02-26T10:29:17;6.68;;;2.15;;
54679;SDS011;40578;53.178;5.846;2024-02-26T10:31:43;7.15;;;2.53;;
54679;SDS011;40578;53.178;5.846;2024-02-26T10:34:09;8.27;;;2.30;;
54679;SDS011;40578;53.178;5.846;2024-02-26T10:36:36;4.43;;;2.25;;
54679;SDS011;40578;53.178;5.846;2024-02-26T10:39:03;4.22;;;2.08;;
54679;SDS011;40578;53.178;5.846;2024-02-26T10:41:30;5.13;;;2.60;;
54679;SDS011;40578;53.178;5.846;2024-02-26T10:43:57;4.72;;;2.30;;
54679;SDS011;40578;53.178;5.846;2024-02-26T10:46:23;4.03;;;2.17;;
54679;SDS011;40578;53.178;5.846;2024-02-26T10:51:16;5.20;;;2.25;;
54679;SDS011;40578;53.178;5.846;2024-02-26T10:53:45;4.38;;;2.60;;
54679;SDS011;40578;53.178;5.846;2024-02-26T10:56:14;6.32;;;2.47;;
54679;SDS011;40578;53.178;5.846;2024-02-26T10:58:42;6.90;;;2.60;;
54679;SDS011;40578;53.178;5.846;2024-02-26T11:01:10;4.68;;;2.45;;
54679;SDS011;40578;53.178;5.846;2024-02-26T11:03:37;4.80;;;2.58;;
54679;SDS011;40578;53.178;5.846;2024-02-26T11:08:29;5.20;;;2.83;;
54679;SDS011;40578;53.178;5.846;2024-02-26T11:10:57;5.63;;;3.05;;
54679;SDS011;40578;53.178;5.846;2024-02-26T11:13:23;6.77;;;2.73;;
54679;SDS011;40578;53.178;5.846;2024-02-26T11:15:55;8.70;;;4.32;;
54679;SDS011;40578;53.178;5.846;2024-02-26T11:18:22;6.20;;;2.88;;
54679;SDS011;40578;53.178;5.846;2024-02-26T11:20:51;4.43;;;2.67;;
54679;SDS011;40578;53.178;5.846;2024-02-26T11:23:21;8.68;;;4.43;;
54679;SDS011;40578;53.178;5.846;2024-02-26T11:25:47;6.37;;;3.00;;
54679;SDS011;40578;53.178;5.846;2024-02-26T11:28:16;8.35;;;3.63;;
54679;SDS011;40578;53.178;5.846;2024-02-26T11:30:45;8.35;;;3.47;;
54679;SDS011;40578;53.178;5.846;2024-02-26T11:33:13;6.38;;;3.65;;
54679;SDS011;40578;53.178;5.846;2024-02-26T11:35:40;9.20;;;4.57;;
54679;SDS011;40578;53.178;5.846;2024-02-26T11:38:06;6.50;;;3.53;;
54679;SDS011;40578;53.178;5.846;2024-02-26T11:40:33;7.68;;;3.78;;
54679;SDS011;40578;53.178;5.846;2024-02-26T11:43:04;9.35;;;3.40;;
54679;SDS011;40578;53.178;5.846;2024-02-26T11:48:16;8.70;;;3.83;;
54679;SDS011;40578;53.178;5.846;2024-02-26T11:50:48;8.52;;;4.30;;
54679;SDS011;40578;53.178;5.846;2024-02-26T11:53:28;7.82;;;4.10;;
54679;SDS011;40578;53.178;5.846;2024-02-26T11:58:40;8.07;;;3.80;;
54679;SDS011;40578;53.178;5.846;2024-02-26T12:01:35;9.03;;;4.27;;
54679;SDS011;40578;53.178;5.846;2024-02-26T12:04:01;10.18;;;4.25;;
54679;SDS011;40578;53.178;5.846;2024-02-26T12:06:29;8.48;;;3.42;;
54679;SDS011;40578;53.178;5.846;2024-02-26T12:08:55;7.47;;;3.90;;
54679;SDS011;40578;53.178;5.846;2024-02-26T12:11:21;12.02;;;3.80;;
54679;SDS011;40578;53.178;5.846;2024-02-26T12:13:47;7.25;;;4.03;;
54679;SDS011;40578;53.178;5.846;2024-02-26T12:16:35;7.82;;;4.20;;
54679;SDS011;40578;53.178;5.846;2024-02-26T12:19:05;7.43;;;4.68;;
54679;SDS011;40578;53.178;5.846;2024-02-26T12:21:35;7.45;;;3.92;;
54679;SDS011;40578;53.178;5.846;2024-02-26T12:24:12;7.70;;;3.17;;
54679;SDS011;40578;53.178;5.846;2024-02-26T12:26:41;5.63;;;3.45;;
54679;SDS011;40578;53.178;5.846;2024-02-26T12:29:07;7.73;;;3.50;;
54679;SDS011;40578;53.178;5.846;2024-02-26T12:31:33;7.53;;;3.72;;
54679;SDS011;40578;53.178;5.846;2024-02-26T12:34:02;10.30;;;3.50;;
54679;SDS011;40578;53.178;5.846;2024-02-26T12:36:28;7.10;;;4.00;;
54679;SDS011;40578;53.178;5.846;2024-02-26T12:38:54;8.43;;;5.03;;
54679;SDS011;40578;53.178;5.846;2024-02-26T12:41:21;10.00;;;4.57;;
54679;SDS011;40578;53.178;5.846;2024-02-26T12:46:14;8.25;;;4.55;;
54679;SDS011;40578;53.178;5.846;2024-02-26T12:48:44;12.98;;;4.88;;
54679;SDS011;40578;53.178;5.846;2024-02-26T12:51:12;10.13;;;5.13;;
54679;SDS011;40578;53.178;5.846;2024-02-26T12:53:40;9.00;;;4.63;;
54679;SDS011;40578;53.178;5.846;2024-02-26T12:56:09;8.70;;;4.32;;
54679;SDS011;40578;53.178;5.846;2024-02-26T12:58:37;10.27;;;6.13;;
54679;SDS011;40578;53.178;5.846;2024-02-26T13:01:04;9.18;;;5.05;;
54679;SDS011;40578;53.178;5.846;2024-02-26T13:03:31;10.55;;;5.65;;
54679;SDS011;40578;53.178;5.846;2024-02-26T13:05:59;9.75;;;4.57;;
54679;SDS011;40578;53.178;5.846;2024-02-26T13:08:24;10.47;;;4.03;;
54679;SDS011;40578;53.178;5.846;2024-02-26T13:10:50;10.70;;;3.73;;
54679;SDS011;40578;53.178;5.846;2024-02-26T13:13:17;9.93;;;4.57;;
54679;SDS011;40578;53.178;5.846;2024-02-26T13:15:44;13.65;;;4.05;;
54679;SDS011;40578;53.178;5.846;2024-02-26T13:18:10;6.45;;;3.22;;
54679;SDS011;40578;53.178;5.846;2024-02-26T13:23:02;12.55;;;3.45;;
54679;SDS011;40578;53.178;5.846;2024-02-26T13:25:29;7.07;;;3.70;;
54679;SDS011;40578;53.178;5.846;2024-02-26T13:28:08;7.47;;;3.50;;
54679;SDS011;40578;53.178;5.846;2024-02-26T13:30:34;7.40;;;3.53;;
54679;SDS011;40578;53.178;5.846;2024-02-26T13:33:10;5.97;;;2.88;;
54679;SDS011;40578;53.178;5.846;2024-02-26T13:35:37;10.32;;;3.30;;
54679;SDS011;40578;53.178;5.846;2024-02-26T13:38:06;10.45;;;3.50;;
54679;SDS011;40578;53.178;5.846;2024-02-26T13:40:32;8.53;;;3.70;;
54679;SDS011;40578;53.178;5.846;2024-02-26T13:45:25;6.85;;;3.72;;
54679;SDS011;40578;53.178;5.846;2024-02-26T13:47:50;9.73;;;3.27;;
54679;SDS011;40578;53.178;5.846;2024-02-26T13:50:16;9.20;;;3.53;;
54679;SDS011;40578;53.178;5.846;2024-02-26T13:52:46;9.80;;;3.35;;
54679;SDS011;40578;53.178;5.846;2024-02-26T13:55:12;8.15;;;3.80;;
54679;SDS011;40578;53.178;5.846;2024-02-26T13:57:39;7.32;;;4.22;;
54679;SDS011;40578;53.178;5.846;2024-02-26T14:00:05;8.40;;;3.87;;
54679;SDS011;40578;53.178;5.846;2024-02-26T14:02:32;10.10;;;4.15;;
54679;SDS011;40578;53.178;5.846;2024-02-26T14:05:01;9.35;;;3.47;;
54679;SDS011;40578;53.178;5.846;2024-02-26T14:07:29;7.63;;;3.53;;
54679;SDS011;40578;53.178;5.846;2024-02-26T14:09:57;7.13;;;3.47;;
54679;SDS011;40578;53.178;5.846;2024-02-26T14:12:25;6.97;;;3.30;;
54679;SDS011;40578;53.178;5.846;2024-02-26T14:14:51;7.27;;;3.00;;
54679;SDS011;40578;53.178;5.846;2024-02-26T14:17:21;7.20;;;3.15;;
54679;SDS011;40578;53.178;5.846;2024-02-26T14:19:47;8.45;;;2.80;;
54679;SDS011;40578;53.178;5.846;2024-02-26T14:22:13;7.70;;;3.38;;
54679;SDS011;40578;53.178;5.846;2024-02-26T14:24:40;5.97;;;2.80;;
54679;SDS011;40578;53.178;5.846;2024-02-26T14:27:10;6.78;;;2.80;;
54679;SDS011;40578;53.178;5.846;2024-02-26T14:29:42;3.97;;;2.83;;
54679;SDS011;40578;53.178;5.846;2024-02-26T14:32:08;5.82;;;2.72;;
54679;SDS011;40578;53.178;5.846;2024-02-26T14:34:34;5.38;;;2.22;;
54679;SDS011;40578;53.178;5.846;2024-02-26T14:37:00;5.43;;;2.38;;
54679;SDS011;40578;53.178;5.846;2024-02-26T14:39:26;6.05;;;2.38;;
54679;SDS011;40578;53.178;5.846;2024-02-26T14:41:52;7.37;;;2.63;;
54679;SDS011;40578;53.178;5.846;2024-02-26T14:44:18;6.53;;;2.13;;
54679;SDS011;40578;53.178;5.846;2024-02-26T14:46:43;5.30;;;2.70;;
54679;SDS011;40578;53.178;5.846;2024-02-26T14:49:09;3.63;;;2.00;;
54679;SDS011;40578;53.178;5.846;2024-02-26T14:51:36;4.90;;;1.98;;
54679;SDS011;40578;53.178;5.846;2024-02-26T14:54:02;3.70;;;1.90;;
54679;SDS011;40578;53.178;5.846;2024-02-26T14:56:27;3.83;;;1.70;;
54679;SDS011;40578;53.178;5.846;2024-02-26T14:58:53;3.63;;;1.93;;
54679;SDS011;40578;53.178;5.846;2024-02-26T15:01:19;4.37;;;1.77;;
54679;SDS011;40578;53.178;5.846;2024-02-26T15:03:45;3.43;;;1.83;;
54679;SDS011;40578;53.178;5.846;2024-02-26T15:06:11;4.30;;;2.35;;
54679;SDS011;40578;53.178;5.846;2024-02-26T15:08:38;4.03;;;1.80;;